Time;durP1;ratioP1;P1;durP2;ratioP2;P2;SDS_P1;SDS_P2;PMS_P1;PMS_P2;Temp;Humidity;BMP_temperature;BMP_pressure;BME280_temperature;BME280_humidity;BME280_pressure;Samples;Min_cycle;Max_cycle;Signal;HPM_P1;HPM_P2
2023/09/13 00:01:30;;;;;;;30.35;22.85;;;25.60;47.00;;;;;;5044516;28;20021;-69
2023/09/13 00:03:58;;;;;;;28.83;22.50;;;25.70;45.40;;;;;;5045291;28;20068;-68
2023/09/13 00:06:25;;;;;;;22.48;19.00;;;25.50;46.20;;;;;;5048981;28;20033;-67
2023/09/13 00:08:52;;;;;;;21.73;18.50;;;25.70;44.80;;;;;;5045568;28;20025;-67
2023/09/13 00:11:20;;;;;;;24.73;18.83;;;25.10;44.40;;;;;;5046468;28;20423;-69
2023/09/13 00:13:47;;;;;;;20.30;16.65;;;25.50;45.30;;;;;;5044791;28;20039;-68
2023/09/13 00:16:15;;;;;;;19.73;16.08;;;26.10;42.60;;;;;;5045436;28;20068;-68
2023/09/13 00:18:42;;;;;;;20.73;15.38;;;26.00;44.00;;;;;;5043198;28;20037;-69
2023/09/13 00:21:11;;;;;;;14.40;12.90;;;26.20;42.60;;;;;;5057086;28;20036;-70
2023/09/13 00:23:39;;;;;;;14.35;12.48;;;26.60;41.90;;;;;;5051524;28;20060;-69
2023/09/13 00:26:06;;;;;;;18.23;13.05;;;26.60;43.00;;;;;;5053056;28;20064;-69
2023/09/13 00:28:34;;;;;;;17.92;13.55;;;26.80;43.70;;;;;;5055530;28;20356;-69
2023/09/13 00:31:01;;;;;;;17.17;13.45;;;26.70;43.50;;;;;;5047967;28;20120;-68
2023/09/13 00:33:29;;;;;;;12.20;9.27;;;27.20;43.80;;;;;;5046393;28;20111;-68
2023/09/13 00:35:57;;;;;;;12.50;9.18;;;27.40;43.80;;;;;;5044729;28;20040;-67
2023/09/13 00:38:25;;;;;;;14.35;10.70;;;27.70;43.50;;;;;;5046179;28;20505;-68
2023/09/13 00:40:53;;;;;;;15.55;11.38;;;28.00;41.80;;;;;;5049144;28;20032;-68
2023/09/13 00:43:20;;;;;;;14.68;9.70;;;28.10;40.30;;;;;;5053407;28;20032;-68
2023/09/13 00:45:50;;;;;;;8.45;6.45;;;27.90;42.00;;;;;;5044970;28;20039;-68
2023/09/13 00:48:18;;;;;;;6.80;5.80;;;27.90;40.40;;;;;;5048976;28;20072;-68
2023/09/13 00:50:47;;;;;;;9.93;8.02;;;28.30;40.80;;;;;;5047181;28;20472;-68
2023/09/13 00:53:15;;;;;;;11.80;9.02;;;28.50;41.10;;;;;;5046777;28;20513;-68
2023/09/13 00:55:43;;;;;;;11.15;8.73;;;28.70;40.90;;;;;;5047195;28;20064;-68
2023/09/13 00:58:11;;;;;;;11.75;8.57;;;28.80;40.70;;;;;;5043013;28;20029;-69
2023/09/13 01:00:38;;;;;;;8.05;6.00;;;28.80;41.00;;;;;;5042244;28;20044;-69
2023/09/13 01:03:07;;;;;;;8.98;6.57;;;28.80;37.00;;;;;;5047493;28;20028;-66
2023/09/13 01:05:37;;;;;;;8.65;5.97;;;28.80;38.30;;;;;;5048450;28;20177;-68
2023/09/13 01:08:05;;;;;;;7.75;5.50;;;28.40;38.80;;;;;;5025585;28;20029;-69
2023/09/13 01:10:32;;;;;;;9.30;6.63;;;28.20;40.60;;;;;;5046566;28;20021;-68
2023/09/13 01:12:59;;;;;;;11.43;7.82;;;28.50;40.70;;;;;;5043166;28;20070;-68
2023/09/13 01:15:31;;;;;;;11.13;6.43;;;28.70;38.20;;;;;;5049282;28;20044;-69
2023/09/13 01:18:03;;;;;;;10.45;5.95;;;28.50;39.40;;;;;;5048878;28;20132;-67
2023/09/13 01:21:01;;;;;;;12.32;5.35;;;28.60;40.20;;;;;;5050101;28;20040;-68
2023/09/13 01:23:41;;;;;;;9.88;6.90;;;28.80;39.70;;;;;;5052640;28;20425;-68
2023/09/13 01:26:47;;;;;;;11.45;6.28;;;28.90;41.30;;;;;;5054942;28;20473;-67
2023/09/13 01:29:15;;;;;;;7.15;5.95;;;28.70;39.90;;;;;;5051303;28;20032;-69
2023/09/13 01:31:43;;;;;;;8.05;5.45;;;28.30;39.20;;;;;;5054175;28;20052;-69
2023/09/13 01:34:11;;;;;;;9.43;5.60;;;28.10;38.80;;;;;;5052909;28;20037;-69
2023/09/13 01:36:38;;;;;;;9.80;5.15;;;28.20;38.20;;;;;;5050909;28;20028;-68
2023/09/13 01:39:06;;;;;;;6.85;3.90;;;27.70;39.50;;;;;;5054848;28;20696;-69
2023/09/13 01:41:42;;;;;;;6.70;3.13;;;28.00;40.10;;;;;;5051607;28;20096;-70
2023/09/13 01:44:10;;;;;;;5.40;2.20;;;27.80;39.90;;;;;;5058532;28;20605;-70
2023/09/13 01:46:42;;;;;;;5.50;2.78;;;28.20;41.60;;;;;;5051309;28;20037;-69
2023/09/13 01:49:13;;;;;;;4.03;2.05;;;28.60;39.80;;;;;;5051066;28;20117;-69
2023/09/13 01:51:41;;;;;;;1.95;1.70;;;28.40;38.70;;;;;;5048374;28;20029;-69
2023/09/13 01:54:09;;;;;;;4.10;2.17;;;28.60;39.30;;;;;;5051024;28;20017;-69
2023/09/13 01:56:36;;;;;;;5.20;2.22;;;28.60;39.60;;;;;;5048728;28;20044;-69
2023/09/13 01:59:04;;;;;;;3.72;2.47;;;28.80;39.80;;;;;;5046213;28;20025;-69
2023/09/13 02:01:31;;;;;;;3.88;3.00;;;28.90;36.80;;;;;;5046619;28;20030;-69
2023/09/13 02:03:59;;;;;;;8.57;2.90;;;28.60;38.10;;;;;;5045956;28;20029;-71
2023/09/13 02:06:26;;;;;;;5.70;2.63;;;28.00;37.40;;;;;;5049877;28;20038;-68
2023/09/13 02:08:53;;;;;;;6.35;3.00;;;28.00;38.20;;;;;;5044692;28;20494;-69
2023/09/13 02:11:20;;;;;;;4.68;2.90;;;28.30;39.10;;;;;;5048128;28;20025;-69
2023/09/13 02:13:50;;;;;;;4.68;2.78;;;28.10;39.10;;;;;;5055400;28;20031;-69
2023/09/13 02:16:24;;;;;;;7.97;4.28;;;28.50;39.10;;;;;;5050178;28;20040;-69
2023/09/13 02:18:52;;;;;;;6.93;4.18;;;29.00;40.00;;;;;;5054552;28;20044;-69
2023/09/13 02:21:19;;;;;;;7.03;4.50;;;29.20;38.70;;;;;;5054609;28;20028;-70
2023/09/13 02:23:47;;;;;;;6.57;4.00;;;29.30;37.60;;;;;;5057706;28;20474;-69
2023/09/13 02:26:24;;;;;;;7.22;4.13;;;29.10;38.30;;;;;;5052856;28;20047;-69
2023/09/13 02:28:53;;;;;;;8.10;4.10;;;29.20;39.50;;;;;;5058477;28;20029;-69
2023/09/13 02:31:29;;;;;;;8.75;4.45;;;29.40;38.70;;;;;;5055505;28;20039;-68
2023/09/13 02:33:56;;;;;;;8.18;4.13;;;29.40;39.70;;;;;;5050886;28;20037;-68
2023/09/13 02:36:24;;;;;;;6.32;3.78;;;29.60;40.10;;;;;;5050708;28;20377;-68
2023/09/13 02:38:52;;;;;;;6.47;3.65;;;29.70;39.60;;;;;;5058838;28;20029;-67
2023/09/13 02:41:20;;;;;;;6.00;4.40;;;29.60;37.90;;;;;;5057083;28;20033;-69
2023/09/13 02:43:47;;;;;;;7.72;3.90;;;29.70;37.70;;;;;;5056679;28;20033;-68
2023/09/13 02:46:15;;;;;;;5.88;4.03;;;29.90;37.70;;;;;;5054090;28;20183;-69
2023/09/13 02:48:42;;;;;;;5.57;4.10;;;29.70;37.20;;;;;;5054714;28;20022;-71
2023/09/13 02:51:13;;;;;;;4.70;3.85;;;29.50;37.70;;;;;;5047307;28;20074;-70
2023/09/13 02:53:41;;;;;;;6.07;3.65;;;29.60;37.00;;;;;;5052468;28;20040;-69
2023/09/13 02:56:09;;;;;;;4.45;3.47;;;28.70;36.50;;;;;;5054950;28;20370;-68
2023/09/13 02:58:37;;;;;;;5.53;3.45;;;28.70;37.20;;;;;;5055165;28;20111;-68
2023/09/13 03:01:10;;;;;;;6.05;3.60;;;28.80;36.80;;;;;;5054150;28;20021;-69
2023/09/13 03:03:37;;;;;;;4.65;3.03;;;28.60;37.60;;;;;;5057475;28;20378;-68
2023/09/13 03:06:20;;;;;;;6.43;3.50;;;28.70;37.70;;;;;;5055319;28;20135;-68
2023/09/13 03:08:48;;;;;;;4.03;3.40;;;29.10;37.40;;;;;;5051894;28;20082;-69
2023/09/13 03:11:18;;;;;;;4.57;2.47;;;29.40;38.00;;;;;;5053183;28;20029;-69
2023/09/13 03:13:46;;;;;;;4.18;2.60;;;29.60;37.10;;;;;;5058686;28;20028;-68
2023/09/13 03:16:14;;;;;;;6.07;2.60;;;30.10;35.50;;;;;;5050416;28;20033;-69
2023/09/13 03:18:41;;;;;;;5.53;2.20;;;30.00;36.20;;;;;;5052822;28;20021;-69
2023/09/13 03:21:10;;;;;;;7.75;2.15;;;29.80;37.50;;;;;;5058970;28;20040;-69
2023/09/13 03:23:39;;;;;;;3.17;2.35;;;30.10;37.50;;;;;;5050015;28;20739;-69
2023/09/13 03:26:22;;;;;;;6.18;2.10;;;30.10;35.70;;;;;;5056877;28;20913;-68
2023/09/13 03:28:55;;;;;;;3.75;2.10;;;29.90;35.50;;;;;;5050831;28;20082;-68
2023/09/13 03:31:28;;;;;;;3.72;2.33;;;29.20;34.10;;;;;;5046847;28;20490;-67
2023/09/13 03:33:57;;;;;;;6.28;2.20;;;28.90;36.40;;;;;;5065461;28;20101;-69
2023/09/13 03:36:30;;;;;;;3.63;1.88;;;29.30;37.60;;;;;;5058075;28;20149;-68
2023/09/13 03:38:57;;;;;;;3.08;2.05;;;29.60;35.80;;;;;;5051391;28;20489;-69
2023/09/13 03:41:26;;;;;;;5.32;2.17;;;29.70;34.80;;;;;;5049027;28;20099;-69
2023/09/13 03:43:53;;;;;;;5.18;2.53;;;29.80;34.90;;;;;;5050944;28;20037;-69
2023/09/13 03:46:21;;;;;;;3.22;2.60;;;30.00;35.10;;;;;;5051992;28;20120;-69
2023/09/13 03:48:48;;;;;;;3.28;2.00;;;29.90;34.00;;;;;;5061632;28;20046;-68
2023/09/13 03:51:16;;;;;;;5.07;2.50;;;29.10;34.60;;;;;;5053730;28;20025;-68
2023/09/13 03:53:43;;;;;;;4.15;2.00;;;29.00;35.50;;;;;;5054144;28;20032;-68
2023/09/13 03:56:10;;;;;;;5.07;2.13;;;29.00;35.40;;;;;;5056126;28;20422;-68
2023/09/13 03:58:38;;;;;;;4.90;2.30;;;29.40;34.90;;;;;;5056937;28;20029;-68
2023/09/13 04:01:06;;;;;;;3.83;2.67;;;28.80;34.30;;;;;;5058893;28;20024;-68
2023/09/13 04:03:34;;;;;;;3.75;2.40;;;28.70;35.30;;;;;;5049207;28;20156;-69
2023/09/13 04:06:02;;;;;;;7.70;2.33;;;28.90;36.10;;;;;;5053504;28;20043;-68
2023/09/13 04:08:29;;;;;;;5.40;2.60;;;29.20;36.00;;;;;;5059339;28;20509;-69
2023/09/13 04:10:57;;;;;;;5.82;3.00;;;28.50;35.30;;;;;;5056281;28;20131;-68
2023/09/13 04:13:24;;;;;;;7.70;2.80;;;28.50;36.70;;;;;;5056484;28;20029;-69
2023/09/13 04:15:52;;;;;;;3.13;2.13;;;29.00;35.60;;;;;;5058405;28;20386;-68
2023/09/13 04:18:19;;;;;;;6.03;2.40;;;28.80;37.00;;;;;;5056910;28;20024;-70
2023/09/13 04:20:47;;;;;;;4.88;2.25;;;28.90;36.20;;;;;;5052957;28;20171;-70
2023/09/13 04:23:14;;;;;;;4.80;2.03;;;28.80;35.90;;;;;;5052155;28;20125;-69
2023/09/13 04:25:42;;;;;;;4.18;2.55;;;29.10;36.20;;;;;;5052814;28;20040;-69
2023/09/13 04:28:09;;;;;;;3.55;2.30;;;29.00;36.00;;;;;;5052616;28;20052;-70
2023/09/13 04:30:37;;;;;;;5.38;3.65;;;29.00;35.60;;;;;;5055635;28;20033;-69
2023/09/13 04:33:06;;;;;;;10.02;4.18;;;28.90;36.10;;;;;;5048593;28;20028;-69
2023/09/13 04:35:34;;;;;;;5.20;3.88;;;28.50;36.80;;;;;;5051319;28;20104;-70
2023/09/13 04:38:02;;;;;;;4.97;3.40;;;28.40;36.90;;;;;;5050450;28;21312;-69
2023/09/13 04:40:30;;;;;;;7.07;3.38;;;28.40;37.20;;;;;;5060360;28;20525;-71
2023/09/13 04:43:17;;;;;;;4.25;2.53;;;28.30;36.90;;;;;;5059187;28;20033;-69
2023/09/13 04:45:44;;;;;;;8.10;4.68;;;28.20;37.70;;;;;;5052891;28;20469;-68
2023/09/13 04:48:11;;;;;;;8.13;4.28;;;28.10;37.30;;;;;;5053364;28;20089;-68
2023/09/13 04:50:39;;;;;;;11.05;5.82;;;28.10;36.90;;;;;;5047865;28;20033;-67
2023/09/13 04:53:07;;;;;;;9.85;5.53;;;28.10;37.40;;;;;;5048981;28;20021;-69
2023/09/13 04:55:34;;;;;;;7.95;6.03;;;28.10;37.50;;;;;;5047036;28;20024;-70
2023/09/13 04:58:01;;;;;;;11.13;6.07;;;28.10;37.90;;;;;;5055696;28;20461;-68
2023/09/13 05:00:29;;;;;;;9.57;5.20;;;28.10;37.60;;;;;;5054662;28;20032;-69
2023/09/13 05:02:56;;;;;;;9.45;4.97;;;28.00;37.40;;;;;;5061260;28;20034;-69
2023/09/13 05:05:24;;;;;;;9.82;5.32;;;27.90;37.70;;;;;;5045594;28;20045;-69
2023/09/13 05:07:53;;;;;;;10.65;5.80;;;27.80;37.40;;;;;;5049364;28;20024;-69
2023/09/13 05:10:23;;;;;;;13.90;7.20;;;27.80;37.60;;;;;;5048300;28;20370;-67
2023/09/13 05:12:50;;;;;;;12.43;7.75;;;27.70;38.00;;;;;;5051290;28;20017;-70
2023/09/13 05:15:17;;;;;;;12.70;8.68;;;27.70;38.40;;;;;;5049082;28;20059;-69
2023/09/13 05:17:45;;;;;;;18.42;9.50;;;27.50;38.10;;;;;;5048171;28;22251;-70
2023/09/13 05:20:12;;;;;;;13.52;10.10;;;27.40;38.70;;;;;;5054743;28;20028;-69
2023/09/13 05:22:39;;;;;;;18.20;11.05;;;27.30;38.90;;;;;;5044178;28;20048;-68
2023/09/13 05:25:07;;;;;;;17.55;11.68;;;27.30;39.30;;;;;;5054295;28;20385;-69
2023/09/13 05:27:34;;;;;;;22.98;11.82;;;27.20;39.90;;;;;;5052232;28;20025;-71
2023/09/13 05:30:02;;;;;;;17.63;11.63;;;27.00;40.00;;;;;;5060014;28;20419;-68
2023/09/13 05:32:29;;;;;;;19.38;10.52;;;26.80;39.70;;;;;;5049919;28;20067;-69
2023/09/13 05:34:57;;;;;;;16.42;10.40;;;26.70;39.90;;;;;;5052311;28;20496;-68
2023/09/13 05:37:25;;;;;;;14.63;9.65;;;26.70;40.30;;;;;;5048713;28;20104;-68
2023/09/13 05:39:53;;;;;;;17.17;9.65;;;26.60;39.70;;;;;;5049424;28;20060;-69
2023/09/13 05:42:20;;;;;;;17.98;9.90;;;26.50;40.10;;;;;;5052467;28;20025;-68
2023/09/13 05:44:47;;;;;;;11.75;8.20;;;26.40;40.00;;;;;;5051830;28;20081;-69
2023/09/13 05:47:15;;;;;;;10.75;7.35;;;26.30;40.20;;;;;;5049082;28;20405;-68
2023/09/13 05:49:42;;;;;;;14.73;8.75;;;26.00;40.30;;;;;;5054035;28;20051;-69
2023/09/13 05:52:09;;;;;;;17.75;8.98;;;25.80;40.70;;;;;;5053711;28;20117;-69
2023/09/13 05:54:36;;;;;;;12.50;7.38;;;25.70;41.10;;;;;;5058177;28;20035;-69
2023/09/13 05:57:04;;;;;;;12.77;8.20;;;25.80;41.10;;;;;;5042085;28;20060;-68
2023/09/13 05:59:35;;;;;;;15.13;7.20;;;25.70;41.00;;;;;;5054279;28;20028;-69
2023/09/13 06:02:02;;;;;;;9.43;6.18;;;25.70;41.30;;;;;;5054550;28;20367;-69
2023/09/13 06:04:30;;;;;;;12.57;6.82;;;25.70;40.70;;;;;;5050542;28;20084;-68
2023/09/13 06:06:57;;;;;;;12.60;6.10;;;25.50;41.00;;;;;;5054814;28;20450;-68
2023/09/13 06:09:24;;;;;;;11.90;6.22;;;25.40;41.20;;;;;;5060736;28;20116;-69
2023/09/13 06:11:52;;;;;;;9.52;5.95;;;25.30;40.60;;;;;;5053577;28;20025;-69
2023/09/13 06:14:19;;;;;;;9.65;5.32;;;25.30;41.20;;;;;;5049427;28;20029;-69
2023/09/13 06:16:47;;;;;;;10.48;5.78;;;25.20;40.50;;;;;;5052760;28;20033;-69
2023/09/13 06:19:14;;;;;;;8.45;5.03;;;25.20;41.30;;;;;;5053840;28;20024;-68
2023/09/13 06:21:41;;;;;;;8.60;4.90;;;25.10;40.90;;;;;;5056258;28;20040;-69
2023/09/13 06:24:09;;;;;;;10.10;6.10;;;25.10;41.10;;;;;;5053088;28;20071;-69
2023/09/13 06:26:36;;;;;;;9.95;5.75;;;25.10;41.20;;;;;;5052965;28;20122;-67
2023/09/13 06:29:03;;;;;;;12.00;6.32;;;24.80;41.50;;;;;;5049266;28;20067;-68
2023/09/13 06:31:31;;;;;;;10.32;6.65;;;24.60;41.70;;;;;;5042896;28;20112;-68
2023/09/13 06:33:58;;;;;;;8.95;6.40;;;24.40;41.80;;;;;;5056706;28;20024;-69
2023/09/13 06:36:26;;;;;;;12.10;7.60;;;24.40;42.10;;;;;;5053992;28;20025;-68
2023/09/13 06:38:53;;;;;;;11.30;7.22;;;24.40;41.80;;;;;;5050198;28;20044;-68
2023/09/13 06:41:21;;;;;;;13.88;7.50;;;24.30;42.50;;;;;;5048175;28;20425;-68
2023/09/13 06:43:48;;;;;;;14.25;7.18;;;24.10;42.60;;;;;;5060796;28;20068;-68
2023/09/13 06:46:15;;;;;;;12.52;7.43;;;24.00;42.60;;;;;;5053164;28;20071;-68
2023/09/13 06:48:43;;;;;;;12.65;7.55;;;24.00;43.00;;;;;;5050495;28;20052;-69
2023/09/13 06:51:10;;;;;;;12.60;8.30;;;23.80;43.10;;;;;;5060869;28;20107;-69
2023/09/13 06:53:37;;;;;;;10.60;7.43;;;23.80;43.10;;;;;;5056234;28;20040;-68
2023/09/13 06:56:05;;;;;;;14.07;7.93;;;23.70;43.50;;;;;;5056487;28;20103;-68
2023/09/13 06:58:32;;;;;;;15.55;7.63;;;23.60;43.60;;;;;;5060619;28;20032;-68
2023/09/13 07:01:00;;;;;;;14.10;8.77;;;23.50;44.10;;;;;;5048979;28;20112;-69
2023/09/13 07:03:27;;;;;;;14.32;8.45;;;23.40;44.00;;;;;;5049783;28;20546;-69
2023/09/13 07:05:54;;;;;;;14.93;10.10;;;23.20;44.40;;;;;;5055756;28;20036;-67
2023/09/13 07:08:24;;;;;;;12.68;8.52;;;23.00;44.90;;;;;;5057888;28;20171;-68
2023/09/13 07:10:52;;;;;;;16.13;9.65;;;22.90;45.20;;;;;;5055899;28;20031;-68
2023/09/13 07:13:19;;;;;;;17.20;10.45;;;22.80;45.50;;;;;;5056427;28;20029;-68
2023/09/13 07:15:48;;;;;;;17.05;10.77;;;22.70;45.90;;;;;;5054735;28;20455;-69
2023/09/13 07:18:15;;;;;;;17.65;10.75;;;22.50;46.50;;;;;;5057844;28;20029;-68
2023/09/13 07:20:43;;;;;;;21.25;12.18;;;22.30;46.70;;;;;;5056270;28;20153;-68
2023/09/13 07:23:10;;;;;;;19.42;14.20;;;22.30;47.00;;;;;;5054368;28;20390;-66
2023/09/13 07:25:37;;;;;;;23.83;14.57;;;22.20;46.80;;;;;;5053866;28;20033;-68
2023/09/13 07:28:05;;;;;;;24.63;14.70;;;22.00;46.90;;;;;;5057309;28;20111;-68
2023/09/13 07:30:33;;;;;;;24.60;15.25;;;21.90;47.00;;;;;;5061612;28;20042;-68
2023/09/13 07:33:01;;;;;;;19.95;14.75;;;21.70;47.00;;;;;;5057534;28;20029;-68
2023/09/13 07:35:29;;;;;;;21.25;15.27;;;21.70;47.10;;;;;;5058082;28;20496;-68
2023/09/13 07:37:56;;;;;;;21.42;13.70;;;21.60;47.50;;;;;;5053748;28;20030;-68
2023/09/13 07:40:23;;;;;;;18.50;13.45;;;21.40;47.70;;;;;;5053400;28;20033;-68
2023/09/13 07:42:51;;;;;;;20.13;12.65;;;21.30;48.20;;;;;;5055460;28;20025;-68
2023/09/13 07:45:18;;;;;;;19.45;12.93;;;21.20;48.40;;;;;;5055329;28;20040;-68
2023/09/13 07:47:45;;;;;;;21.35;12.45;;;21.20;48.80;;;;;;5057160;28;20101;-67
2023/09/13 07:50:42;;;;;;;15.18;10.45;;;21.20;49.40;;;;;;5058358;28;20330;-68
2023/09/13 07:53:12;;;;;;;15.60;10.07;;;21.10;49.30;;;;;;5052739;28;20134;-67
2023/09/13 07:55:40;;;;;;;14.27;8.38;;;21.00;49.40;;;;;;5055212;28;20497;-67
2023/09/13 07:58:08;;;;;;;17.45;7.80;;;20.90;49.50;;;;;;5054899;28;20102;-69
2023/09/13 08:00:36;;;;;;;12.07;8.00;;;20.80;50.00;;;;;;5055389;28;20025;-69
2023/09/13 08:03:04;;;;;;;13.85;7.43;;;20.70;50.20;;;;;;5049061;28;20124;-68
2023/09/13 08:05:32;;;;;;;12.63;6.50;;;20.70;50.50;;;;;;5055723;28;20130;-68
2023/09/13 08:08:00;;;;;;;13.00;6.82;;;20.60;50.80;;;;;;5057972;28;20032;-68
2023/09/13 08:10:27;;;;;;;10.90;7.13;;;20.50;50.90;;;;;;5049770;28;20025;-68
2023/09/13 08:12:55;;;;;;;11.70;7.13;;;20.40;51.00;;;;;;5055834;28;20112;-67
2023/09/13 08:15:22;;;;;;;13.18;7.72;;;20.30;51.50;;;;;;5054119;28;20117;-67
2023/09/13 08:17:49;;;;;;;13.73;8.90;;;20.30;51.80;;;;;;5047299;28;20032;-68
2023/09/13 08:20:17;;;;;;;14.80;9.32;;;20.20;52.10;;;;;;5046577;28;20029;-68
2023/09/13 08:22:44;;;;;;;21.23;10.90;;;20.10;52.50;;;;;;5049636;28;20049;-69
2023/09/13 08:25:12;;;;;;;26.60;16.50;;;19.90;52.90;;;;;;5062563;28;20029;-69
2023/09/13 08:27:40;;;;;;;22.15;16.90;;;19.80;53.20;;;;;;5056462;28;20025;-68
2023/09/13 08:30:11;;;;;;;24.60;18.85;;;19.70;53.60;;;;;;5047574;28;20117;-68
2023/09/13 08:32:38;;;;;;;28.88;20.35;;;19.70;53.80;;;;;;5060820;28;20197;-68
2023/09/13 08:35:06;;;;;;;32.88;20.77;;;19.70;53.80;;;;;;5057344;28;20028;-68
2023/09/13 08:37:33;;;;;;;29.17;21.95;;;19.60;54.00;;;;;;5065518;28;20028;-69
2023/09/13 08:40:01;;;;;;;27.85;22.20;;;19.40;55.20;;;;;;5053125;28;20021;-67
2023/09/13 08:42:29;;;;;;;32.25;22.75;;;19.20;55.60;;;;;;5053908;28;20128;-67
2023/09/13 08:44:59;;;;;;;32.92;22.17;;;19.20;55.90;;;;;;5059737;28;20068;-67
2023/09/13 08:47:28;;;;;;;28.00;22.30;;;19.00;56.30;;;;;;5049665;28;20104;-69
2023/09/13 08:49:57;;;;;;;32.38;24.55;;;18.90;57.00;;;;;;5049378;28;20508;-67
2023/09/13 08:52:26;;;;;;;27.27;21.45;;;18.80;57.60;;;;;;5046315;28;20036;-67
2023/09/13 08:54:56;;;;;;;26.45;21.35;;;18.70;58.10;;;;;;5054348;28;20048;-68
2023/09/13 08:57:25;;;;;;;27.42;20.50;;;18.70;58.10;;;;;;5056092;28;20466;-68
2023/09/13 08:59:52;;;;;;;23.48;19.67;;;18.60;58.60;;;;;;5054945;28;20082;-68
2023/09/13 09:02:23;;;;;;;22.27;18.42;;;18.50;59.10;;;;;;5048317;28;20032;-68
2023/09/13 09:04:53;;;;;;;23.02;17.30;;;18.40;59.30;;;;;;5056804;28;20120;-67
2023/09/13 09:07:21;;;;;;;20.48;16.88;;;18.30;59.90;;;;;;5059013;28;20060;-68
2023/09/13 09:09:51;;;;;;;24.27;16.50;;;18.30;60.00;;;;;;5055204;28;20043;-68
2023/09/13 09:12:19;;;;;;;25.52;17.25;;;18.30;60.30;;;;;;5055863;28;20035;-66
2023/09/13 09:14:49;;;;;;;21.80;15.60;;;18.20;60.50;;;;;;5057873;28;20029;-67
2023/09/13 09:17:22;;;;;;;24.20;16.20;;;18.20;60.30;;;;;;5053332;28;21311;-67
2023/09/13 09:19:49;;;;;;;20.60;15.98;;;18.10;60.50;;;;;;5051187;28;20032;-68
2023/09/13 09:22:18;;;;;;;22.08;16.38;;;18.00;61.30;;;;;;5051863;28;20044;-68
2023/09/13 09:24:46;;;;;;;22.88;16.42;;;17.90;61.70;;;;;;5057138;28;20051;-68
2023/09/13 09:27:13;;;;;;;24.05;16.05;;;17.80;62.20;;;;;;5054265;28;20564;-68
2023/09/13 09:29:47;;;;;;;21.52;16.20;;;17.70;62.40;;;;;;5055540;28;20036;-69
2023/09/13 09:32:15;;;;;;;25.52;17.05;;;17.70;63.00;;;;;;5062474;28;20028;-68
2023/09/13 09:34:42;;;;;;;19.75;14.90;;;17.60;63.10;;;;;;5057454;28;20048;-67
2023/09/13 09:37:11;;;;;;;20.60;15.55;;;17.60;63.60;;;;;;5052356;28;20028;-67
2023/09/13 09:39:42;;;;;;;21.20;15.95;;;17.50;63.90;;;;;;5054578;28;20503;-68
2023/09/13 09:42:16;;;;;;;20.38;16.15;;;17.40;64.10;;;;;;5054765;28;20033;-68
2023/09/13 09:44:44;;;;;;;20.00;15.00;;;17.40;64.90;;;;;;5053546;28;20040;-68
2023/09/13 09:47:15;;;;;;;22.80;16.30;;;17.20;65.10;;;;;;5049345;28;20025;-68
2023/09/13 09:49:51;;;;;;;19.95;16.00;;;17.20;65.80;;;;;;5055875;28;20040;-68
2023/09/13 09:52:19;;;;;;;21.60;15.82;;;17.10;66.30;;;;;;5058340;28;20028;-68
2023/09/13 09:54:51;;;;;;;28.13;16.08;;;17.10;66.60;;;;;;5053174;28;20032;-68
2023/09/13 09:57:22;;;;;;;27.05;17.73;;;17.00;67.10;;;;;;5048134;28;20116;-66
2023/09/13 09:59:50;;;;;;;27.40;19.60;;;16.90;67.30;;;;;;5050652;28;20375;-68
2023/09/13 10:02:25;;;;;;;30.58;21.25;;;16.80;67.70;;;;;;5050024;28;20025;-68
2023/09/13 10:04:52;;;;;;;31.33;22.20;;;16.90;67.70;;;;;;5049259;28;20035;-67
2023/09/13 10:07:20;;;;;;;31.00;22.83;;;16.90;67.70;;;;;;5049767;28;20033;-68
2023/09/13 10:09:48;;;;;;;29.83;22.55;;;16.80;67.70;;;;;;5067342;28;20017;-68
2023/09/13 10:12:16;;;;;;;30.80;21.50;;;16.80;67.90;;;;;;5051961;28;20320;-68
2023/09/13 10:14:45;;;;;;;34.15;21.42;;;16.70;68.60;;;;;;5062516;28;20094;-68
2023/09/13 10:17:13;;;;;;;32.08;21.80;;;16.60;68.80;;;;;;5053481;28;20017;-68
2023/09/13 10:19:44;;;;;;;32.80;22.15;;;16.50;68.50;;;;;;5066038;28;20403;-68
2023/09/13 10:22:16;;;;;;;30.40;21.08;;;16.40;68.90;;;;;;5059987;28;20041;-68
2023/09/13 10:24:52;;;;;;;30.77;19.60;;;16.40;69.90;;;;;;5058418;28;20036;-68
2023/09/13 10:27:22;;;;;;;30.25;20.60;;;16.20;70.50;;;;;;5050851;28;20032;-69
2023/09/13 10:29:56;;;;;;;23.88;18.98;;;16.10;71.00;;;;;;5059966;28;20059;-70
2023/09/13 10:32:41;;;;;;;29.23;19.33;;;16.00;71.30;;;;;;5061489;28;20107;-68
2023/09/13 10:35:11;;;;;;;25.20;18.17;;;16.00;71.90;;;;;;5061867;28;20466;-68
2023/09/13 10:38:03;;;;;;;29.10;18.30;;;15.80;72.30;;;;;;5059817;28;20024;-67
2023/09/13 10:40:51;;;;;;;24.73;17.98;;;15.90;72.40;;;;;;5058268;28;20485;-66
2023/09/13 10:43:20;;;;;;;28.27;20.02;;;15.70;73.00;;;;;;5064297;28;20029;-68
2023/09/13 10:45:48;;;;;;;28.73;20.05;;;15.60;73.60;;;;;;5058387;28;20020;-68
2023/09/13 10:48:18;;;;;;;27.35;19.38;;;15.50;74.30;;;;;;5054774;28;20382;-68
2023/09/13 10:50:45;;;;;;;28.95;19.55;;;15.40;74.90;;;;;;5060328;28;20474;-67
2023/09/13 10:53:14;;;;;;;35.75;20.40;;;15.50;75.20;;;;;;5060017;28;20040;-67
2023/09/13 10:55:42;;;;;;;29.92;20.73;;;15.40;75.20;;;;;;5063351;28;20055;-69
2023/09/13 10:58:12;;;;;;;30.67;21.67;;;15.30;75.30;;;;;;5054741;28;20021;-67
2023/09/13 11:00:43;;;;;;;31.95;21.60;;;15.30;76.00;;;;;;5060930;28;20021;-68
2023/09/13 11:03:11;;;;;;;30.08;20.30;;;15.20;76.40;;;;;;5058809;28;20022;-69
2023/09/13 11:05:38;;;;;;;34.55;23.88;;;15.30;76.90;;;;;;5059694;28;20020;-68
2023/09/13 11:08:11;;;;;;;36.13;24.05;;;15.20;76.70;;;;;;5054469;28;20029;-69
2023/09/13 11:10:39;;;;;;;35.20;22.42;;;15.10;77.60;;;;;;5058477;28;20056;-68
2023/09/13 11:13:15;;;;;;;34.80;22.35;;;15.10;77.30;;;;;;5066711;28;20481;-69
2023/09/13 11:15:56;;;;;;;35.65;21.13;;;15.00;77.90;;;;;;5058613;28;20055;-68
2023/09/13 11:18:27;;;;;;;32.33;22.40;;;15.00;78.50;;;;;;5057089;28;20037;-68
2023/09/13 11:20:56;;;;;;;37.25;22.98;;;15.00;79.10;;;;;;5051562;28;20037;-69
2023/09/13 11:23:24;;;;;;;38.03;23.25;;;15.00;79.40;;;;;;5061707;28;20083;-68
2023/09/13 11:26:05;;;;;;;33.58;20.83;;;14.90;79.80;;;;;;5060728;28;20501;-68
2023/09/13 11:28:38;;;;;;;35.78;22.63;;;14.90;80.00;;;;;;5055177;28;20024;-68
2023/09/13 11:31:07;;;;;;;36.85;23.45;;;14.90;80.30;;;;;;5056612;28;20538;-68
2023/09/13 11:33:57;;;;;;;33.25;22.70;;;14.80;80.30;;;;;;5057535;28;20028;-68
2023/09/13 11:36:27;;;;;;;32.80;22.55;;;14.70;80.80;;;;;;5052422;28;20054;-67
2023/09/13 11:39:01;;;;;;;37.08;23.70;;;14.60;81.50;;;;;;5050760;28;20037;-66
2023/09/13 11:41:37;;;;;;;37.28;23.25;;;14.40;81.90;;;;;;5052053;28;20036;-67
2023/09/13 11:44:06;;;;;;;40.22;23.67;;;14.40;82.50;;;;;;5053534;28;20102;-68
2023/09/13 11:46:34;;;;;;;35.55;25.02;;;14.40;82.90;;;;;;5057307;28;20036;-66
2023/09/13 11:49:01;;;;;;;34.08;23.25;;;14.40;83.40;;;;;;5057079;28;20035;-68
2023/09/13 11:51:33;;;;;;;41.75;25.92;;;14.40;84.00;;;;;;5055407;28;20060;-67
2023/09/13 11:54:17;;;;;;;33.78;25.42;;;14.30;84.30;;;;;;5058359;28;20402;-67
2023/09/13 11:56:45;;;;;;;40.08;25.70;;;14.30;84.30;;;;;;5063080;28;20039;-68
2023/09/13 11:59:13;;;;;;;38.47;25.00;;;14.20;84.10;;;;;;5057812;28;20382;-68
2023/09/13 12:01:45;;;;;;;38.35;24.60;;;14.10;84.50;;;;;;5051257;28;20028;-67
2023/09/13 12:04:13;;;;;;;34.85;25.45;;;14.10;84.60;;;;;;5051802;28;20501;-68
2023/09/13 12:06:49;;;;;;;37.22;24.80;;;14.00;84.90;;;;;;5059779;28;20478;-68
2023/09/13 12:09:20;;;;;;;38.85;25.48;;;14.00;85.10;;;;;;5055752;28;20028;-67
2023/09/13 12:11:50;;;;;;;35.40;24.27;;;14.00;85.50;;;;;;5058545;28;20029;-68
2023/09/13 12:14:18;;;;;;;34.20;22.95;;;13.90;85.50;;;;;;5059302;28;20044;-67
2023/09/13 12:16:55;;;;;;;32.33;22.38;;;13.90;86.10;;;;;;5055319;28;20043;-68
2023/09/13 12:19:26;;;;;;;29.15;20.58;;;14.00;86.50;;;;;;5056014;28;20115;-66
2023/09/13 12:21:54;;;;;;;29.45;20.35;;;14.00;86.60;;;;;;5061409;28;20036;-67
2023/09/13 12:24:27;;;;;;;32.15;19.95;;;13.90;86.70;;;;;;5057598;28;20028;-67
2023/09/13 12:26:55;;;;;;;30.48;18.75;;;13.80;87.00;;;;;;5057626;28;20041;-68
2023/09/13 12:29:23;;;;;;;29.13;18.65;;;13.80;87.20;;;;;;5026988;28;20041;-67
2023/09/13 12:31:55;;;;;;;28.25;17.95;;;13.80;87.90;;;;;;5056228;28;20021;-68
2023/09/13 12:34:23;;;;;;;26.95;17.90;;;13.90;87.90;;;;;;5052242;28;20033;-68
2023/09/13 12:36:51;;;;;;;30.50;16.77;;;13.90;88.30;;;;;;5065953;28;20128;-68
2023/09/13 12:39:19;;;;;;;22.38;16.10;;;14.00;88.60;;;;;;5060941;28;20021;-69
2023/09/13 12:41:47;;;;;;;24.73;15.85;;;13.90;88.50;;;;;;5052621;28;20141;-68
2023/09/13 12:44:18;;;;;;;26.33;16.23;;;13.90;89.40;;;;;;5057746;28;20054;-68
2023/09/13 12:46:45;;;;;;;27.17;15.50;;;13.90;90.20;;;;;;5052501;28;20049;-67